Flight Track Log - Related Links

Times and Time Zones

All times are in EDT time to prevent confusion due to time zone crossing. See the ABX921 flight status page for this flight to view local times or setup timezone preferences in your user account.

Time Position Orientation Groundspeed Altitude Reporting Facility
EDT Latitude Longitude Course Direction KTS MPH feet Rate Location/Type
Tue 09:51:57 PM 25.9970 -98.3130 82° East 374 430 12,200  Level FlightAware ADS-B
Tue 09:52:37 PM 26.0090 -98.2340 80° East 361 415 12,200  Level FlightAware ADS-B
Tue 09:52:52 PM 26.0200 -98.2120 61° Northeast 343 395 12,200 -686 Level FlightAware ADS-B
Tue 09:53:47 PM 26.0690 -98.1370 54° Northeast 306 352 11,400 -568 Descending FlightAware ADS-B
Tue 09:54:27 PM 26.0990 -98.0910 54° Northeast 306 352 11,300 -75 Descending FlightAware ADS-B
Tue 09:55:07 PM 26.1270 -98.0480 54° Northeast 306 352 11,300 -1,765 Level FlightAware ADS-B
Tue 09:55:52 PM 26.1610 -97.9950 54° Northeast 256 295 8,800 -2,560 Descending FlightAware ADS-B
Tue 09:56:22 PM 26.1810 -97.9630 55° Northeast 257 296 8,100 -1,527 Descending FlightAware ADS-B
Tue 09:56:47 PM 26.1980 -97.9340 57° Northeast 259 298 7,400 -923 Descending FlightAware ADS-B
Tue 09:57:27 PM 26.2270 -97.8980 48° Northeast 255 293 7,100 -1,271 Descending FlightAware ADS-B
Tue 09:58:12 PM 26.2660 -97.8550 45° Northeast 246 283 5,600 -1,886 Descending FlightAware ADS-B
Tue 09:58:37 PM 26.2860 -97.8330 45° Northeast 236 272 4,900 -1,560 Descending FlightAware ADS-B
Tue 09:59:02 PM 26.3050 -97.8130 43° Northeast 228 262 4,300 -1,600 Descending FlightAware ADS-B
Tue 09:59:37 PM 26.3310 -97.7880 41° Northeast 216 249 3,300 -1,000 Descending FlightAware ADS-B
Tue 10:00:02 PM 26.3490 -97.7710 40° Northeast 216 249 3,300 -776 Level FlightAware ADS-B
Tue 10:01:02 PM 26.3560 -97.7100 83° East 180 207 2,200 -776 Descending FlightAware ADS-B
Tue 10:01:27 PM 26.3580 -97.6880 84° East 180 207 2,200  Level FlightAware ADS-B
Tue 10:07:00 PM 25.8803 -99.5713 North  Level Estimated
Tue 10:08:00 PM 25.8985 -99.4747 North  Level Estimated
Tue 10:09:00 PM 25.9165 -99.3781 North  Level Estimated
Tue 10:10:00 PM 25.9345 -99.2815 North  Level Estimated
Tue 10:11:00 PM 25.9525 -99.1848 North  Level Estimated
Tue 10:12:00 PM 25.9704 -99.0881 North  Level Estimated
Tue 10:13:00 PM 25.9882 -98.9913 North  Level Estimated
Tue 10:14:00 PM 26.0059 -98.8946 North  Level Estimated
Tue 10:15:00 PM 26.0236 -98.7978 North  Level Estimated
Tue 10:16:00 PM 26.0412 -98.7009 North  Level Estimated
Tue 10:17:00 PM 26.0588 -98.6041 North  Level Estimated
Tue 10:18:00 PM 26.0763 -98.5072 North  Level Estimated
Tue 10:19:00 PM 26.0937 -98.4103 North  Level Estimated
Tue 10:20:00 PM 26.1111 -98.3133 North  Level Estimated
Tue 10:21:00 PM 26.1284 -98.2164 North  Level Estimated
Tue 10:22:00 PM 26.1456 -98.1194 North  Level Estimated
Tue 10:23:00 PM 26.1628 -98.0223 North  Level Estimated
Tue 10:24:00 PM 26.1799 -97.9253 North  Level Estimated

Login

Don't have an account? Register now (free) for customized features, flight alerts, and more!